This is the latest recevied weather packets stored in our database for station/object KG5APU. If no packets are shown the sender has not sent any weather packets the latest 10 day(s).
| Time | Temp. | Humidity | Pressure | Rain* | Wind** | Luminosity | Snow |
|---|---|---|---|---|---|---|---|
| 1787956979 | 38.33° C | 32% | 1014.9 hPa | 0 mm | - | 267 W/m² | - |
| 1787956380 | 38.33° C | 33% | 1015 hPa | 0 mm | - | 299 W/m² | - |
| 1787955776 | 38.89° C | 33% | 1015 hPa | 0 mm | - | 328 W/m² | - |
| 1787955176 | 37.78° C | 35% | 1015.1 hPa | 0 mm | - | 357 W/m² | - |
| 1787954574 | 39.44° C | 31% | 1015.1 hPa | 0 mm | - | 389 W/m² | - |
| 1787953974 | 38.89° C | 31% | 1015.2 hPa | 0 mm | - | 427 W/m² | - |
| 1787953374 | 38.89° C | 33% | 1015.4 hPa | 0 mm | - | 459 W/m² | - |
| 1787952771 | 38.89° C | 35% | 1015.4 hPa | 0 mm | - | 487 W/m² | - |
| 1787952169 | 38.89° C | 34% | 1015.6 hPa | 0 mm | - | 507 W/m² | - |
| 1787951563 | 38.89° C | 32% | 1015.9 hPa | 0 mm | - | 551 W/m² | - |
| 1787950960 | 38.33° C | 35% | 1016 hPa | 0 mm | - | 579 W/m² | - |
| 1787950358 | 38.33° C | 35% | 1016.5 hPa | 0 mm | - | 597 W/m² | - |
| 1787949755 | 37.78° C | 36% | 1016.4 hPa | 0 mm | - | 625 W/m² | - |
| 1787949155 | 38.33° C | 35% | 1016.7 hPa | 0 mm | - | 646 W/m² | - |
| 1787948551 | 38.33° C | 36% | 1016.6 hPa | 0 mm | - | 670 W/m² | - |
| 1787947952 | 38.33° C | 37% | 1017 hPa | 0 mm | - | 681 W/m² | - |
| 1787947351 | 37.78° C | 38% | 1017.2 hPa | 0 mm | - | 700 W/m² | - |
| 1787946750 | 37.78° C | 37% | 1017.1 hPa | 0 mm | - | 722 W/m² | - |
| 1787946149 | 37.78° C | 38% | 1017.3 hPa | 0 mm | - | 741 W/m² | - |
| 1787945545 | 37.78° C | 38% | 1017.3 hPa | 0 mm | - | 756 W/m² | - |
| 1787944946 | 38.33° C | 37% | 1017.6 hPa | 0 mm | - | 774 W/m² | - |
| 1787944345 | 37.78° C | 38% | 1017.7 hPa | 0 mm | - | 771 W/m² | - |
| 1787943741 | 37.78° C | 40% | 1017.7 hPa | 0 mm | - | 780 W/m² | - |
| 1787943138 | 38.33° C | 39% | 1017.8 hPa | 0 mm | - | 783 W/m² | - |
| 1787942534 | 37.78° C | 40% | 1018 hPa | 0 mm | - | 793 W/m² | - |
* Rain latest hour (hover to see other rain measurements)
** Current wind speed in m/s (hover to see current wind gust speed)